X  Close Metar Aviation Weather Data     KBWI Baltimore/Washington International Thurgood Marshall Airport
Temperature
52°F Temperature
19°F Dewpoint
28% Humidity



Wind
7 MPH
11 KM/H
3 M/S
6 KTS



210°
SSW
Current Conditions

Mostly Cloudy Mostly Cloudy
Pressure 1018.92 (hPa) - 30.09 (inHg)
Visibility 10 (mile) - 16.1 (km)
Airport
Airport-code KBWI

Location: Baltimore/Washington International Thurgood Marshall Airport
Distance: 10 (mi)

Metar:
KBWI 051854Z 21006KT 10SM BKN180 BKN220 11/M07 A3009 RMK AO2 SLP191 T01061067

Time: 02-05-2023 1:54 pm EST